createdAt,value
2017-04-05T00:00:13.322Z,1017.81
2017-04-05T00:00:53.938Z,1017.8
2017-04-05T00:01:34.526Z,1017.82
2017-04-05T00:02:15.097Z,1017.81
2017-04-05T00:02:55.666Z,1017.8
2017-04-05T00:03:36.239Z,1017.83
2017-04-05T00:04:16.813Z,1017.84
2017-04-05T00:04:57.392Z,1017.9
2017-04-05T00:05:37.965Z,1017.91
2017-04-05T00:06:18.551Z,1017.91
2017-04-05T00:06:59.130Z,1017.93
2017-04-05T00:07:39.712Z,1017.92
2017-04-05T00:08:20.305Z,1017.91
2017-04-05T00:09:00.874Z,1017.92
2017-04-05T00:09:41.445Z,1017.93
2017-04-05T00:10:22.015Z,1017.92
2017-04-05T00:11:02.582Z,1017.88
2017-04-05T00:11:43.163Z,1017.87
2017-04-05T00:12:23.740Z,1017.89
2017-04-05T00:13:04.314Z,1017.88
2017-04-05T00:13:44.904Z,1017.92
2017-04-05T00:14:25.470Z,1017.89
2017-04-05T00:15:06.052Z,1017.87
2017-04-05T00:15:46.637Z,1017.88
2017-04-05T00:16:27.217Z,1017.87
2017-04-05T00:17:07.777Z,1017.89
2017-04-05T00:17:48.362Z,1017.86
2017-04-05T00:18:28.924Z,1017.85
2017-04-05T00:19:09.541Z,1017.87
2017-04-05T00:19:50.112Z,1017.83
2017-04-05T00:20:30.692Z,1017.87
2017-04-05T00:21:11.259Z,1017.85
2017-04-05T00:21:51.856Z,1017.82
2017-04-05T00:22:32.443Z,1017.82
2017-04-05T00:23:12.995Z,1017.81
2017-04-05T00:23:53.572Z,1017.75
2017-04-05T00:24:34.140Z,1017.77
2017-04-05T00:25:14.714Z,1017.75
2017-04-05T00:25:55.321Z,1017.76
2017-04-05T00:26:35.904Z,1017.74
2017-04-05T00:27:16.477Z,1017.76
2017-04-05T00:27:57.050Z,1017.76
2017-04-05T00:28:37.672Z,1017.77
2017-04-05T00:29:18.265Z,1017.77
2017-04-05T00:29:58.834Z,1017.74
2017-04-05T00:30:39.410Z,1017.75
2017-04-05T00:31:19.975Z,1017.72
2017-04-05T00:32:00.545Z,1017.71
2017-04-05T00:32:41.106Z,1017.71
2017-04-05T00:33:21.703Z,1017.73
2017-04-05T00:34:02.274Z,1017.76
2017-04-05T00:34:42.849Z,1017.76
2017-04-05T00:35:23.438Z,1017.78
2017-04-05T00:36:04.022Z,1017.82
2017-04-05T00:36:44.600Z,1017.76
2017-04-05T00:37:25.167Z,1017.77
2017-04-05T00:38:05.727Z,1017.8
2017-04-05T00:38:46.290Z,1017.8
2017-04-05T00:39:26.898Z,1017.75
2017-04-05T00:40:07.483Z,1017.72
2017-04-05T00:40:48.060Z,1017.71
2017-04-05T00:41:28.649Z,1017.69
2017-04-05T00:42:09.248Z,1017.65
2017-04-05T00:42:49.828Z,1017.64
2017-04-05T00:43:30.421Z,1017.61
2017-04-05T00:44:11.071Z,1017.59
2017-04-05T00:44:51.656Z,1017.58
2017-04-05T00:45:32.239Z,1017.6
2017-04-05T00:46:12.820Z,1017.58
2017-04-05T00:46:53.401Z,1017.57
2017-04-05T00:47:33.966Z,1017.57
2017-04-05T00:48:14.551Z,1017.56
2017-04-05T00:48:55.166Z,1017.6
2017-04-05T00:49:35.717Z,1017.55
2017-04-05T00:50:16.316Z,1017.53
2017-04-05T00:50:56.907Z,1017.52
2017-04-05T00:51:37.499Z,1017.6
2017-04-05T00:52:18.113Z,1017.53
2017-04-05T00:52:58.678Z,1017.49
2017-04-05T00:53:39.245Z,1017.46
2017-04-05T00:54:19.815Z,1017.45
2017-04-05T00:55:00.406Z,1017.42
2017-04-05T00:55:40.977Z,1017.44
2017-04-05T00:56:21.604Z,1017.43
2017-04-05T00:57:02.170Z,1017.4
2017-04-05T00:57:42.741Z,1017.41
2017-04-05T00:58:23.308Z,1017.46
2017-04-05T00:59:03.893Z,1017.48
2017-04-05T00:59:44.491Z,1017.48
2017-04-05T01:00:25.034Z,1017.48
2017-04-05T01:01:05.613Z,1017.52
2017-04-05T01:01:46.179Z,1017.48
2017-04-05T01:02:26.757Z,1017.51
2017-04-05T01:03:07.356Z,1017.54
2017-04-05T01:03:47.928Z,1017.53
2017-04-05T01:04:28.520Z,1017.53
2017-04-05T01:05:09.089Z,1017.52
2017-04-05T01:05:49.663Z,1017.52
2017-04-05T01:06:30.240Z,1017.54
2017-04-05T01:07:10.829Z,1017.55
2017-04-05T01:07:51.418Z,1017.55
2017-04-05T01:08:32.000Z,1017.54
2017-04-05T01:09:12.581Z,1017.55
2017-04-05T01:09:53.165Z,1017.58
2017-04-05T01:10:33.768Z,1017.57
2017-04-05T01:11:14.348Z,1017.52
2017-04-05T01:11:54.922Z,1017.53
2017-04-05T01:12:35.485Z,1017.55
2017-04-05T01:13:16.080Z,1017.53
2017-04-05T01:13:56.663Z,1017.53
2017-04-05T01:14:37.236Z,1017.56
2017-04-05T01:15:17.806Z,1017.51
2017-04-05T01:15:58.390Z,1017.56
2017-04-05T01:16:38.970Z,1017.51
2017-04-05T01:17:19.555Z,1017.55
2017-04-05T01:18:00.151Z,1017.53
2017-04-05T01:18:40.742Z,1017.54
2017-04-05T01:19:21.308Z,1017.51
2017-04-05T01:20:01.888Z,1017.46
2017-04-05T01:20:42.454Z,1017.45
2017-04-05T01:21:23.028Z,1017.51
2017-04-05T01:22:03.611Z,1017.48
2017-04-05T01:22:44.187Z,1017.4
2017-04-05T01:23:24.758Z,1017.45
2017-04-05T01:24:05.347Z,1017.43
2017-04-05T01:24:45.916Z,1017.44
2017-04-05T01:25:26.490Z,1017.43
2017-04-05T01:26:07.054Z,1017.43
2017-04-05T01:26:47.642Z,1017.47
2017-04-05T01:27:28.234Z,1017.47
2017-04-05T01:28:08.813Z,1017.46
2017-04-05T01:28:49.406Z,1017.48
2017-04-05T01:29:29.990Z,1017.43
2017-04-05T01:30:10.567Z,1017.49
2017-04-05T01:30:51.147Z,1017.44
2017-04-05T01:31:31.734Z,1017.47
2017-04-05T01:32:12.316Z,1017.5
2017-04-05T01:32:52.894Z,1017.5
2017-04-05T01:33:33.470Z,1017.53
2017-04-05T01:34:14.130Z,1017.5
2017-04-05T01:34:54.707Z,1017.54
2017-04-05T01:35:35.293Z,1017.49
2017-04-05T01:36:15.878Z,1017.52
2017-04-05T01:36:56.454Z,1017.53
2017-04-05T01:37:37.027Z,1017.52
2017-04-05T01:38:17.599Z,1017.54
2017-04-05T01:38:58.182Z,1017.51
2017-04-05T01:39:38.774Z,1017.52
2017-04-05T01:40:19.341Z,1017.53
2017-04-05T01:40:59.919Z,1017.44
2017-04-05T01:41:40.504Z,1017.47
2017-04-05T01:42:21.075Z,1017.47
2017-04-05T01:43:01.656Z,1017.41
2017-04-05T01:43:42.247Z,1017.4
2017-04-05T01:44:22.816Z,1017.39
2017-04-05T01:45:03.447Z,1017.36
2017-04-05T01:45:44.020Z,1017.31
2017-04-05T01:46:24.584Z,1017.37
2017-04-05T01:47:05.148Z,1017.35
2017-04-05T01:47:45.739Z,1017.32
2017-04-05T01:48:26.309Z,1017.33
2017-04-05T01:49:06.882Z,1017.29
2017-04-05T01:49:47.444Z,1017.31
2017-04-05T01:50:28.024Z,1017.3
2017-04-05T01:51:08.603Z,1017.32
2017-04-05T01:51:49.170Z,1017.29
2017-04-05T01:52:29.793Z,1017.32
2017-04-05T01:53:10.379Z,1017.33
2017-04-05T01:53:50.988Z,1017.35
2017-04-05T01:54:31.567Z,1017.36
2017-04-05T01:55:12.149Z,1017.37
2017-04-05T01:55:52.735Z,1017.35
2017-04-05T01:56:33.302Z,1017.37
2017-04-05T01:57:13.871Z,1017.35
2017-04-05T01:57:54.452Z,1017.31
2017-04-05T01:58:35.037Z,1017.3
2017-04-05T01:59:15.638Z,1017.3
2017-04-05T01:59:56.208Z,1017.3
2017-04-05T02:00:38.535Z,1017.28
2017-04-05T02:01:19.796Z,1017.31
2017-04-05T02:02:00.925Z,1017.33
2017-04-05T02:02:41.791Z,1017.28
2017-04-05T02:03:22.364Z,1017.29
2017-04-05T02:04:02.940Z,1017.29
2017-04-05T02:04:43.520Z,1017.32
2017-04-05T02:05:24.104Z,1017.26
2017-04-05T02:06:04.729Z,1017.3
2017-04-05T02:06:45.311Z,1017.31
2017-04-05T02:07:25.905Z,1017.3
2017-04-05T02:08:06.523Z,1017.27
2017-04-05T02:08:47.125Z,1017.31
2017-04-05T02:09:27.701Z,1017.3
2017-04-05T02:10:08.301Z,1017.31
2017-04-05T02:10:48.897Z,1017.29
2017-04-05T02:11:29.503Z,1017.29
2017-04-05T02:12:10.073Z,1017.3
2017-04-05T02:12:50.666Z,1017.32
2017-04-05T02:13:31.253Z,1017.31
2017-04-05T02:14:11.826Z,1017.3
2017-04-05T02:14:52.430Z,1017.31
2017-04-05T02:15:33.029Z,1017.29
2017-04-05T02:16:13.581Z,1017.29
2017-04-05T02:16:54.191Z,1017.3
2017-04-05T02:17:34.778Z,1017.3
2017-04-05T02:18:15.378Z,1017.3
2017-04-05T02:18:55.944Z,1017.32
2017-04-05T02:19:36.515Z,1017.32
2017-04-05T02:20:17.090Z,1017.29
2017-04-05T02:20:57.683Z,1017.33
2017-04-05T02:21:38.274Z,1017.31
2017-04-05T02:22:18.892Z,1017.3
2017-04-05T02:22:59.474Z,1017.31
2017-04-05T02:23:40.048Z,1017.28
2017-04-05T02:24:20.631Z,1017.26
2017-04-05T02:25:01.246Z,1017.25
2017-04-05T02:25:41.840Z,1017.26
2017-04-05T02:26:22.440Z,1017.23
2017-04-05T02:27:03.032Z,1017.29
2017-04-05T02:27:43.603Z,1017.3
2017-04-05T02:28:24.170Z,1017.28
2017-04-05T02:29:04.742Z,1017.29
2017-04-05T02:29:45.340Z,1017.29
2017-04-05T02:30:25.915Z,1017.27
2017-04-05T02:31:06.510Z,1017.28
2017-04-05T02:31:47.075Z,1017.29
2017-04-05T02:32:27.694Z,1017.3
2017-04-05T02:33:08.271Z,1017.27
2017-04-05T02:33:48.861Z,1017.21
2017-04-05T02:34:29.441Z,1017.21
2017-04-05T02:35:10.021Z,1017.24
2017-04-05T02:35:50.607Z,1017.22
2017-04-05T02:36:31.181Z,1017.22
2017-04-05T02:37:11.766Z,1017.22
2017-04-05T02:37:52.367Z,1017.24
2017-04-05T02:38:32.942Z,1017.23
2017-04-05T02:39:13.518Z,1017.22
2017-04-05T02:39:54.173Z,1017.23
2017-04-05T02:40:34.739Z,1017.2
2017-04-05T02:41:15.315Z,1017.22
2017-04-05T02:41:55.903Z,1017.22
2017-04-05T02:42:36.473Z,1017.21
2017-04-05T02:43:17.071Z,1017.18
2017-04-05T02:43:57.651Z,1017.18
2017-04-05T02:44:38.228Z,1017.17
2017-04-05T02:45:18.801Z,1017.17
2017-04-05T02:45:59.391Z,1017.13
2017-04-05T02:46:39.967Z,1017.14
2017-04-05T02:47:20.559Z,1017.08
2017-04-05T02:48:01.139Z,1017.11
2017-04-05T02:48:41.718Z,1017.12
2017-04-05T02:49:22.299Z,1017.12
2017-04-05T02:50:02.880Z,1017.12
2017-04-05T02:50:43.442Z,1017.09
2017-04-05T02:51:24.025Z,1017.14
2017-04-05T02:52:04.601Z,1017.15
2017-04-05T02:52:45.193Z,1017.13
2017-04-05T02:53:25.745Z,1017.14
2017-04-05T02:54:06.338Z,1017.13
2017-04-05T02:54:46.931Z,1017.17
2017-04-05T02:55:27.522Z,1017.13
2017-04-05T02:56:08.204Z,1017.1
2017-04-05T02:56:48.832Z,1017.11
2017-04-05T02:57:29.438Z,1017.12
2017-04-05T02:58:10.006Z,1017.09
2017-04-05T02:58:50.634Z,1017.05
2017-04-05T02:59:31.198Z,1017.07
2017-04-05T03:00:11.779Z,1017.09
2017-04-05T03:00:52.374Z,1017.06
2017-04-05T03:01:32.933Z,1017.1
2017-04-05T03:02:13.508Z,1017.14
2017-04-05T03:02:54.078Z,1017.11
2017-04-05T03:03:34.702Z,1017.1
2017-04-05T03:04:15.275Z,1017.13
2017-04-05T03:04:55.895Z,1017.07
2017-04-05T03:05:36.487Z,1017.06
2017-04-05T03:06:17.055Z,1017.05
2017-04-05T03:06:57.652Z,1017.09
2017-04-05T03:07:38.239Z,1017.05
2017-04-05T03:08:18.829Z,1017.06
2017-04-05T03:08:59.418Z,1017.04
2017-04-05T03:09:40.016Z,1017.05
2017-04-05T03:10:20.635Z,1017.01
2017-04-05T03:11:01.216Z,1017.01
2017-04-05T03:11:41.838Z,1017.01
2017-04-05T03:12:22.422Z,1016.99
2017-04-05T03:13:03.006Z,1016.99
2017-04-05T03:13:43.593Z,1017.03
2017-04-05T03:14:24.157Z,1016.98
2017-04-05T03:15:04.739Z,1016.99
2017-04-05T03:15:45.342Z,1016.99
2017-04-05T03:16:25.921Z,1016.98
2017-04-05T03:17:06.504Z,1016.94
2017-04-05T03:17:47.074Z,1016.99
2017-04-05T03:18:27.653Z,1016.93
2017-04-05T03:19:08.223Z,1016.96
2017-04-05T03:19:48.883Z,1016.95
2017-04-05T03:20:29.463Z,1016.92
2017-04-05T03:21:10.031Z,1016.98
2017-04-05T03:21:50.599Z,1016.93
2017-04-05T03:22:31.181Z,1016.96
2017-04-05T03:23:11.748Z,1016.91
2017-04-05T03:23:52.339Z,1016.92
2017-04-05T03:24:32.909Z,1016.95
2017-04-05T03:25:13.491Z,1016.91
2017-04-05T03:25:54.104Z,1016.92
2017-04-05T03:26:34.669Z,1016.93
2017-04-05T03:27:15.251Z,1016.94
2017-04-05T03:27:55.831Z,1016.92
2017-04-05T03:28:36.408Z,1016.91
2017-04-05T03:29:16.980Z,1016.95
2017-04-05T03:29:57.597Z,1016.88
2017-04-05T03:30:38.176Z,1016.9
2017-04-05T03:31:18.794Z,1016.91
2017-04-05T03:31:59.368Z,1016.91
2017-04-05T03:32:40.018Z,1016.95
2017-04-05T03:33:20.591Z,1016.9
2017-04-05T03:34:01.225Z,1016.92
2017-04-05T03:34:41.814Z,1016.9
2017-04-05T03:35:22.385Z,1016.88
2017-04-05T03:36:02.973Z,1016.9
2017-04-05T03:36:43.547Z,1016.85
2017-04-05T03:37:24.161Z,1016.86
2017-04-05T03:38:04.744Z,1016.88
2017-04-05T03:38:45.325Z,1016.81
2017-04-05T03:39:25.896Z,1016.77
2017-04-05T03:40:06.499Z,1016.83
2017-04-05T03:40:47.086Z,1016.79
2017-04-05T03:41:27.665Z,1016.78
2017-04-05T03:42:08.258Z,1016.77
2017-04-05T03:42:48.861Z,1016.76
2017-04-05T03:43:29.457Z,1016.79
2017-04-05T03:44:10.067Z,1016.78
2017-04-05T03:44:50.759Z,1016.79
2017-04-05T03:45:31.487Z,1016.79
2017-04-05T03:46:12.094Z,1016.75
2017-04-05T03:46:52.709Z,1016.74
2017-04-05T03:47:33.318Z,1016.71
2017-04-05T03:48:13.898Z,1016.71
2017-04-05T03:48:54.478Z,1016.69
2017-04-05T03:49:35.076Z,1016.71
2017-04-05T03:50:15.674Z,1016.66
2017-04-05T03:50:56.271Z,1016.59
2017-04-05T03:51:36.879Z,1016.64
2017-04-05T03:52:17.444Z,1016.64
2017-04-05T03:52:58.029Z,1016.65
2017-04-05T03:53:38.601Z,1016.62
2017-04-05T03:54:19.172Z,1016.6
2017-04-05T03:54:59.750Z,1016.58
2017-04-05T03:55:40.317Z,1016.58
2017-04-05T03:56:20.909Z,1016.57
2017-04-05T03:57:01.495Z,1016.53
2017-04-05T03:57:42.071Z,1016.56
2017-04-05T03:58:22.662Z,1016.55
2017-04-05T03:59:03.243Z,1016.52
2017-04-05T03:59:43.829Z,1016.49
2017-04-05T04:00:24.482Z,1016.49
2017-04-05T04:01:05.158Z,1016.53
2017-04-05T04:01:45.735Z,1016.48
2017-04-05T04:02:26.313Z,1016.48
2017-04-05T04:03:06.917Z,1016.45
2017-04-05T04:03:47.497Z,1016.47
2017-04-05T04:04:28.076Z,1016.47
2017-04-05T04:05:08.646Z,1016.4
2017-04-05T04:05:49.209Z,1016.44
2017-04-05T04:06:29.810Z,1016.43
2017-04-05T04:07:10.408Z,1016.4
2017-04-05T04:07:51.018Z,1016.43
2017-04-05T04:08:32.132Z,1016.42
2017-04-05T04:09:12.812Z,1016.44
2017-04-05T04:09:53.418Z,1016.44
2017-04-05T04:10:34.058Z,1016.45
2017-04-05T04:11:14.601Z,1016.4
2017-04-05T04:11:55.194Z,1016.4
2017-04-05T04:12:35.812Z,1016.42
2017-04-05T04:13:16.389Z,1016.42
2017-04-05T04:13:56.970Z,1016.43
2017-04-05T04:14:37.542Z,1016.45
2017-04-05T04:15:18.105Z,1016.44
2017-04-05T04:15:58.703Z,1016.43
2017-04-05T04:16:39.315Z,1016.42
2017-04-05T04:17:19.929Z,1016.44
2017-04-05T04:18:00.512Z,1016.49
2017-04-05T04:18:41.102Z,1016.45
2017-04-05T04:19:21.697Z,1016.46
2017-04-05T04:20:02.252Z,1016.46
2017-04-05T04:20:42.830Z,1016.44
2017-04-05T04:21:23.402Z,1016.5
2017-04-05T04:22:04.003Z,1016.47
2017-04-05T04:22:44.588Z,1016.47
2017-04-05T04:23:25.170Z,1016.43
2017-04-05T04:24:05.746Z,1016.44
2017-04-05T04:24:46.331Z,1016.41
2017-04-05T04:25:26.920Z,1016.41
2017-04-05T04:26:07.515Z,1016.39
2017-04-05T04:26:48.097Z,1016.35
2017-04-05T04:27:28.688Z,1016.35
2017-04-05T04:28:09.340Z,1016.34
2017-04-05T04:28:49.929Z,1016.31
2017-04-05T04:29:30.502Z,1016.27
2017-04-05T04:30:11.081Z,1016.29
2017-04-05T04:30:51.663Z,1016.3
2017-04-05T04:31:32.289Z,1016.28
2017-04-05T04:32:12.858Z,1016.34
2017-04-05T04:32:53.463Z,1016.32
2017-04-05T04:33:34.051Z,1016.31
2017-04-05T04:34:14.640Z,1016.31
2017-04-05T04:34:55.217Z,1016.36
2017-04-05T04:35:35.812Z,1016.32
2017-04-05T04:36:16.395Z,1016.31
2017-04-05T04:36:56.971Z,1016.28
2017-04-05T04:37:37.576Z,1016.29
2017-04-05T04:38:18.121Z,1016.34
2017-04-05T04:38:58.797Z,1016.3
2017-04-05T04:39:40.247Z,1016.34
2017-04-05T04:40:20.837Z,1016.34
2017-04-05T04:41:01.453Z,1016.34
2017-04-05T04:41:42.082Z,1016.33
2017-04-05T04:42:22.655Z,1016.31
2017-04-05T04:43:03.251Z,1016.35
2017-04-05T04:43:43.830Z,1016.35
2017-04-05T04:44:24.466Z,1016.36
2017-04-05T04:45:05.083Z,1016.36
2017-04-05T04:45:45.841Z,1016.36
2017-04-05T04:46:26.746Z,1016.3
2017-04-05T04:47:07.529Z,1016.31
2017-04-05T04:47:48.200Z,1016.33
2017-04-05T04:48:28.781Z,1016.3
2017-04-05T04:49:09.368Z,1016.3
2017-04-05T04:49:49.958Z,1016.28
2017-04-05T04:50:30.558Z,1016.33
2017-04-05T04:51:11.121Z,1016.32
2017-04-05T04:51:51.696Z,1016.3
2017-04-05T04:52:32.301Z,1016.27
2017-04-05T04:53:12.882Z,1016.3
2017-04-05T04:53:53.456Z,1016.28
2017-04-05T04:54:34.040Z,1016.29
2017-04-05T04:55:14.638Z,1016.3
2017-04-05T04:55:55.226Z,1016.29
2017-04-05T04:56:35.791Z,1016.27
2017-04-05T04:57:16.358Z,1016.25
2017-04-05T04:57:56.943Z,1016.24
2017-04-05T04:58:37.530Z,1016.27
2017-04-05T04:59:18.118Z,1016.23
2017-04-05T04:59:58.688Z,1016.22
2017-04-05T05:00:39.257Z,1016.25
2017-04-05T05:01:19.830Z,1016.25
2017-04-05T05:02:00.396Z,1016.25
2017-04-05T05:02:40.963Z,1016.27
2017-04-05T05:03:21.578Z,1016.26
2017-04-05T05:04:02.182Z,1016.27
2017-04-05T05:04:42.763Z,1016.26
2017-04-05T05:05:23.356Z,1016.26
2017-04-05T05:06:03.933Z,1016.27
2017-04-05T05:06:44.533Z,1016.26
2017-04-05T05:07:25.111Z,1016.28
2017-04-05T05:08:05.676Z,1016.25
2017-04-05T05:08:46.263Z,1016.25
2017-04-05T05:09:26.858Z,1016.27
2017-04-05T05:10:07.431Z,1016.24
2017-04-05T05:10:48.006Z,1016.24
2017-04-05T05:11:28.564Z,1016.3
2017-04-05T05:12:09.127Z,1016.28
2017-04-05T05:12:49.706Z,1016.31
2017-04-05T05:13:30.299Z,1016.33
2017-04-05T05:14:10.874Z,1016.32
2017-04-05T05:14:51.451Z,1016.34
2017-04-05T05:15:32.035Z,1016.34
2017-04-05T05:16:12.670Z,1016.33
2017-04-05T05:16:53.243Z,1016.31
2017-04-05T05:17:33.825Z,1016.34
2017-04-05T05:18:14.429Z,1016.32
2017-04-05T05:18:55.011Z,1016.35
2017-04-05T05:19:35.592Z,1016.32
2017-04-05T05:20:16.205Z,1016.35
2017-04-05T05:20:56.788Z,1016.35
2017-04-05T05:21:37.409Z,1016.34
2017-04-05T05:22:17.974Z,1016.35
2017-04-05T05:22:58.550Z,1016.32
2017-04-05T05:23:39.137Z,1016.33
2017-04-05T05:24:19.700Z,1016.36
2017-04-05T05:25:00.282Z,1016.33
2017-04-05T05:25:40.850Z,1016.36
2017-04-05T05:26:21.418Z,1016.35
2017-04-05T05:27:01.997Z,1016.34
2017-04-05T05:27:42.577Z,1016.35
2017-04-05T05:28:23.167Z,1016.33
2017-04-05T05:29:03.770Z,1016.33
2017-04-05T05:29:44.436Z,1016.34
2017-04-05T05:30:25.005Z,1016.33
2017-04-05T05:31:05.600Z,1016.32
2017-04-05T05:31:46.182Z,1016.31
2017-04-05T05:32:26.788Z,1016.37
2017-04-05T05:33:07.359Z,1016.34
2017-04-05T05:33:47.924Z,1016.37
2017-04-05T05:34:28.507Z,1016.39
2017-04-05T05:35:09.085Z,1016.38
2017-04-05T05:35:49.697Z,1016.36
2017-04-05T05:36:30.289Z,1016.37
2017-04-05T05:37:10.874Z,1016.38
2017-04-05T05:37:51.462Z,1016.37
2017-04-05T05:38:32.042Z,1016.39
2017-04-05T05:39:12.639Z,1016.37
2017-04-05T05:39:53.205Z,1016.38
2017-04-05T05:40:33.780Z,1016.39
2017-04-05T05:41:14.381Z,1016.41
2017-04-05T05:41:54.962Z,1016.4
2017-04-05T05:42:36.392Z,1016.36
2017-04-05T05:43:23.527Z,1016.35
2017-04-05T05:44:11.277Z,1016.38
2017-04-05T05:44:58.589Z,1016.36
2017-04-05T05:45:46.311Z,1016.39
2017-04-05T05:46:33.307Z,1016.36
2017-04-05T05:47:21.507Z,1016.37
2017-04-05T05:48:09.247Z,1016.35
2017-04-05T05:48:52.478Z,1016.35
2017-04-05T05:49:34.453Z,1016.33
2017-04-05T05:50:21.865Z,1016.35
2017-04-05T05:51:03.601Z,1016.32
2017-04-05T05:51:44.198Z,1016.36
2017-04-05T05:52:24.807Z,1016.37
2017-04-05T05:53:05.402Z,1016.38
2017-04-05T05:53:45.984Z,1016.37
2017-04-05T05:54:26.560Z,1016.35
2017-04-05T05:55:07.137Z,1016.38
2017-04-05T05:55:47.716Z,1016.4
2017-04-05T05:56:28.302Z,1016.42
2017-04-05T05:57:08.876Z,1016.39
2017-04-05T05:57:49.469Z,1016.39
2017-04-05T05:58:30.065Z,1016.37
2017-04-05T05:59:10.661Z,1016.37
2017-04-05T05:59:51.248Z,1016.42
2017-04-05T06:00:31.821Z,1016.4
2017-04-05T06:01:12.983Z,1016.41
2017-04-05T06:01:53.530Z,1016.43
2017-04-05T06:02:34.110Z,1016.41
2017-04-05T06:03:14.687Z,1016.42
2017-04-05T06:03:55.270Z,1016.44
2017-04-05T06:04:35.849Z,1016.41
2017-04-05T06:05:16.821Z,1016.46
2017-04-05T06:05:57.218Z,1016.46
2017-04-05T06:06:37.834Z,1016.42
2017-04-05T06:07:18.506Z,1016.41
2017-04-05T06:07:59.106Z,1016.4
2017-04-05T06:08:39.678Z,1016.42
2017-04-05T06:09:20.258Z,1016.46
2017-04-05T06:10:01.100Z,1016.52
2017-04-05T06:10:41.678Z,1016.5
2017-04-05T06:11:22.250Z,1016.49
2017-04-05T06:12:02.820Z,1016.56
2017-04-05T06:12:43.425Z,1016.54
2017-04-05T06:13:24.048Z,1016.58
2017-04-05T06:14:04.755Z,1016.58
2017-04-05T06:14:45.355Z,1016.5
2017-04-05T06:15:25.945Z,1016.51
2017-04-05T06:16:06.536Z,1016.52
2017-04-05T06:16:47.125Z,1016.5
2017-04-05T06:17:27.702Z,1016.51
2017-04-05T06:18:08.282Z,1016.48
2017-04-05T06:18:48.940Z,1016.47
2017-04-05T06:19:29.530Z,1016.47
2017-04-05T06:20:10.130Z,1016.5
2017-04-05T06:20:50.707Z,1016.52
2017-04-05T06:21:31.326Z,1016.49
2017-04-05T06:22:11.896Z,1016.52
2017-04-05T06:22:52.506Z,1016.49
2017-04-05T06:23:33.076Z,1016.52
2017-04-05T06:24:13.649Z,1016.5
2017-04-05T06:24:54.231Z,1016.49
2017-04-05T06:25:34.825Z,1016.49
2017-04-05T06:26:15.425Z,1016.44
2017-04-05T06:26:55.998Z,1016.48
2017-04-05T06:27:36.584Z,1016.5
2017-04-05T06:28:17.181Z,1016.46
2017-04-05T06:28:57.759Z,1016.47
2017-04-05T06:29:38.349Z,1016.45
2017-04-05T06:30:18.940Z,1016.41
2017-04-05T06:30:59.542Z,1016.46
2017-04-05T06:31:40.134Z,1016.43
2017-04-05T06:32:20.860Z,1016.48
2017-04-05T06:33:01.462Z,1016.48
2017-04-05T06:33:42.066Z,1016.44
2017-04-05T06:34:22.662Z,1016.43
2017-04-05T06:35:03.233Z,1016.45
2017-04-05T06:35:43.828Z,1016.42
2017-04-05T06:36:24.400Z,1016.48
2017-04-05T06:37:04.976Z,1016.48
2017-04-05T06:37:45.549Z,1016.5
2017-04-05T06:38:26.134Z,1016.48
2017-04-05T06:39:06.717Z,1016.49
2017-04-05T06:39:47.302Z,1016.5
2017-04-05T06:40:27.899Z,1016.5
2017-04-05T06:41:08.484Z,1016.51
2017-04-05T06:41:49.066Z,1016.49
2017-04-05T06:42:29.675Z,1016.5
2017-04-05T06:43:10.259Z,1016.52
2017-04-05T06:43:50.845Z,1016.48
2017-04-05T06:44:31.417Z,1016.49
2017-04-05T06:45:12.003Z,1016.5
2017-04-05T06:45:52.578Z,1016.48
2017-04-05T06:46:33.155Z,1016.5
2017-04-05T06:47:13.766Z,1016.52
2017-04-05T06:47:54.364Z,1016.55
2017-04-05T06:48:34.937Z,1016.53
2017-04-05T06:49:15.530Z,1016.53
2017-04-05T06:49:56.097Z,1016.58
2017-04-05T06:50:36.686Z,1016.54
2017-04-05T06:51:17.271Z,1016.59
2017-04-05T06:51:57.859Z,1016.57
2017-04-05T06:52:38.477Z,1016.59
2017-04-05T06:53:19.128Z,1016.6
2017-04-05T06:53:59.709Z,1016.58
2017-04-05T06:54:40.397Z,1016.61
2017-04-05T06:55:20.958Z,1016.61
2017-04-05T06:56:01.541Z,1016.59
2017-04-05T06:56:42.123Z,1016.58
2017-04-05T06:57:22.710Z,1016.54
2017-04-05T06:58:03.290Z,1016.56
2017-04-05T06:58:43.868Z,1016.56
2017-04-05T06:59:24.522Z,1016.56
2017-04-05T07:00:05.325Z,1016.54
2017-04-05T07:00:45.916Z,1016.55
2017-04-05T07:01:26.505Z,1016.53
2017-04-05T07:02:07.106Z,1016.57
2017-04-05T07:02:47.712Z,1016.56
2017-04-05T07:03:28.306Z,1016.52
2017-04-05T07:04:08.895Z,1016.57
2017-04-05T07:04:49.478Z,1016.54
2017-04-05T07:05:30.061Z,1016.53
2017-04-05T07:06:10.672Z,1016.56
2017-04-05T07:06:51.261Z,1016.52
2017-04-05T07:07:31.836Z,1016.55
2017-04-05T07:08:12.426Z,1016.57
2017-04-05T07:08:53.027Z,1016.58
2017-04-05T07:09:33.642Z,1016.57
2017-04-05T07:10:14.239Z,1016.6
2017-04-05T07:10:54.924Z,1016.58
2017-04-05T07:11:35.502Z,1016.57
2017-04-05T07:12:16.105Z,1016.55
2017-04-05T07:12:56.687Z,1016.58
2017-04-05T07:13:37.267Z,1016.55
2017-04-05T07:14:17.851Z,1016.6
2017-04-05T07:14:58.406Z,1016.57
2017-04-05T07:15:39.000Z,1016.56
2017-04-05T07:16:19.580Z,1016.56
2017-04-05T07:17:00.338Z,1016.59
2017-04-05T07:17:40.915Z,1016.54
2017-04-05T07:18:21.526Z,1016.54
2017-04-05T07:19:02.106Z,1016.55
2017-04-05T07:19:42.673Z,1016.58
2017-04-05T07:20:23.254Z,1016.51
2017-04-05T07:21:03.835Z,1016.56
2017-04-05T07:21:45.392Z,1016.55
2017-04-05T07:22:26.020Z,1016.55
2017-04-05T07:23:06.600Z,1016.61
2017-04-05T07:23:47.193Z,1016.57
2017-04-05T07:24:27.754Z,1016.56
2017-04-05T07:25:08.399Z,1016.55
2017-04-05T07:25:49.048Z,1016.58
2017-04-05T07:26:29.810Z,1016.55
2017-04-05T07:27:10.414Z,1016.55
2017-04-05T07:27:51.000Z,1016.52
2017-04-05T07:28:31.578Z,1016.52
2017-04-05T07:29:12.151Z,1016.57
2017-04-05T07:29:52.755Z,1016.52
2017-04-05T07:30:33.333Z,1016.49
2017-04-05T07:31:13.913Z,1016.52
2017-04-05T07:31:54.531Z,1016.48
2017-04-05T07:32:35.130Z,1016.5
2017-04-05T07:33:15.747Z,1016.5
2017-04-05T07:33:56.339Z,1016.48
2017-04-05T07:34:36.956Z,1016.49
2017-04-05T07:35:17.547Z,1016.49
2017-04-05T07:35:58.134Z,1016.51
2017-04-05T07:36:38.706Z,1016.56
2017-04-05T07:37:19.273Z,1016.5
2017-04-05T07:37:59.861Z,1016.48
2017-04-05T07:38:40.458Z,1016.49
2017-04-05T07:39:21.057Z,1016.52
2017-04-05T07:40:01.630Z,1016.49
2017-04-05T07:40:42.256Z,1016.44
2017-04-05T07:41:22.838Z,1016.47
2017-04-05T07:42:03.405Z,1016.45
2017-04-05T07:42:43.982Z,1016.45
2017-04-05T07:43:24.576Z,1016.47
2017-04-05T07:44:05.173Z,1016.5
2017-04-05T07:44:45.830Z,1016.5
2017-04-05T07:45:26.416Z,1016.51
2017-04-05T07:46:06.994Z,1016.48
2017-04-05T07:46:47.580Z,1016.5
2017-04-05T07:47:28.202Z,1016.5
2017-04-05T07:48:08.795Z,1016.49
2017-04-05T07:48:49.388Z,1016.49
2017-04-05T07:49:29.962Z,1016.5
2017-04-05T07:50:10.541Z,1016.48
2017-04-05T07:50:51.102Z,1016.47
2017-04-05T07:51:31.685Z,1016.53
2017-04-05T07:52:12.258Z,1016.52
2017-04-05T07:52:53.139Z,1016.58
2017-04-05T07:53:33.765Z,1016.57
2017-04-05T07:54:14.345Z,1016.56
2017-04-05T07:54:54.914Z,1016.61
2017-04-05T07:55:35.489Z,1016.62
2017-04-05T07:56:16.122Z,1016.61
2017-04-05T07:56:56.693Z,1016.64
2017-04-05T07:57:37.280Z,1016.59
2017-04-05T07:58:17.888Z,1016.61
2017-04-05T07:58:58.467Z,1016.67
2017-04-05T07:59:39.072Z,1016.71
2017-04-05T08:00:19.659Z,1016.62
2017-04-05T08:01:00.338Z,1016.63
2017-04-05T08:01:40.995Z,1016.62
2017-04-05T08:02:21.746Z,1016.62
2017-04-05T08:03:02.371Z,1016.58
2017-04-05T08:03:43.038Z,1016.58
2017-04-05T08:04:23.806Z,1016.63
2017-04-05T08:05:04.389Z,1016.62
2017-04-05T08:05:44.968Z,1016.59
2017-04-05T08:06:25.559Z,1016.6
2017-04-05T08:07:06.244Z,1016.58
2017-04-05T08:07:46.760Z,1016.54
2017-04-05T08:08:27.488Z,1016.51
2017-04-05T08:09:08.361Z,1016.53
2017-04-05T08:09:49.214Z,1016.54
2017-04-05T08:10:29.819Z,1016.56
2017-04-05T08:11:10.444Z,1016.56
2017-04-05T08:11:51.072Z,1016.58
2017-04-05T08:12:31.668Z,1016.58
2017-04-05T08:13:12.432Z,1016.55
2017-04-05T08:13:52.916Z,1016.57